Terminal Aerodrome Forecast
Issued by NWS

Home | Current Version | Previous Version | Text Only | Print | Product List | Glossary On
Versions: 1 2 3 4 5 6 7 8 9 10 11
000
FTUS46 KLOX 140528
TAFBUR
TAF
KBUR 140528Z 1406/1506 VRB03KT P6SM SKC
     FM141300 05006KT P6SM SKC WS010/04035KT
     FM141600 05014KT P6SM SKC WS010/04035KT
     FM142200 05006KT P6SM SKC
     FM150300 VRB03KT P6SM SKC=

USA.gov is the U.S. government's official web portal to all federal, state and local government web resources and services.